Marchen Maersk — OUIY2 — position and weather

sailwx.info

Track history (hours):
 
Tides and Currents Weather Stations Pressure Air Temp Water Temp Dewpoint Dewpoint Depression Visibility Wind Speed Wind Dir Waves Ship Positions

Marchen Maersk

Last reported at 2016-May-18 03:32 UTC. Time now 2016-May-25 16:54 UTC.
Position N 48°30' W 126°38'.

Length 367 m; draft 12.5 m.

Type: Ship (hazmat cat A). MMSI: 220594000.

Date/timePositionNaut miles runAvg speedWind from/ knotsBaromVisibWave heightAir tempDewpointWater temp
2016-May-18 03:32N 48°30' W 126°38'1212.1
2016-May-18 02:33N 48°30' W 126°20'1211.9
2016-May-18 01:33N 48°31' W 126°02'1212.2
2016-May-18 00:33N 48°30' W 125°44'1212.0
2016-May-17 23:33N 48°30' W 125°26'1212.0
2016-May-17 22:33N 48°30' W 125°07'1212.2
2016-May-17 21:33N 48°30' W 124°49'4811.9
2016-May-17 17:33N 48°16' W 123°40'1211.7
2016-May-17 16:33N 48°11' W 123°25'1110.8
2016-May-17 15:33N 48°12' W 123°08'1918.1
2016-May-17 14:32N 48°08' W 122°41'1818.5
2016-May-17 13:34N 47°52' W 122°28'1616.0
2016-May-17 12:33N 47°37' W 122°23'2 1.9
2016-May-17 11:31N 47°36' W 122°21'0 0.0
2016-May-17 10:33N 47°36' W 122°21'0 0.0
2016-May-17 09:31N 47°36' W 122°21'0 0.0
2016-May-17 08:31N 47°36' W 122°21'0 0.0
2016-May-17 07:34N 47°36' W 122°21'0 0.0
2016-May-17 06:33N 47°36' W 122°21'0 0.0
2016-May-17 05:28N 47°36' W 122°21'0 0.0
2016-May-17 04:31N 47°36' W 122°21'0 0.0
2016-May-17 03:31N 47°36' W 122°21'0 0.0
2016-May-17 02:30N 47°36' W 122°21'0 0.0
2016-May-17 01:33N 47°36' W 122°21'0 0.0
2016-May-17 00:30N 47°36' W 122°21'0 0.0
2016-May-16 23:33N 47°36' W 122°21'0 0.0
2016-May-16 22:31N 47°36' W 122°21'0 0.0
2016-May-16 21:25N 47°36' W 122°21'0 0.0
2016-May-16 20:27N 47°36' W 122°21'0 0.0
2016-May-16 19:33N 47°36' W 122°21'0 0.0
2016-May-16 18:30N 47°36' W 122°21'0 0.0
2016-May-16 17:31N 47°36' W 122°21'0 0.0
2016-May-16 16:33N 47°36' W 122°21'0 0.0
2016-May-16 15:30N 47°36' W 122°21'0 0.0
2016-May-16 14:31N 47°36' W 122°21'0 0.0
2016-May-16 13:33N 47°36' W 122°21'0 0.0
2016-May-16 12:33N 47°36' W 122°21'7 7.1
2016-May-16 11:34N 47°40' W 122°28'1615.8
2016-May-16 10:33N 47°56' W 122°32'1615.9
2016-May-16 09:31N 48°10' W 122°46'1817.5
2016-May-16 08:30N 48°11' W 123°12'1111.4
2016-May-16 07:33N 48°12' W 123°28'8 7.6
2016-May-16 06:33N 48°13' W 123°40'8 7.7
2016-May-16 05:31N 48°13' W 123°52'44 8.6
2016-May-16 00:24N 48°29' W 124°53'7810.7
2016-May-15 17:05N 47°14' W 125°30'811.7
2016-May-15 16:24N 47°07' W 125°30'1112.0
2016-May-15 15:30N 46°56' W 125°31'1212.3
2016-May-15 14:33N 46°44' W 125°31'1212.4
2016-May-15 13:33N 46°32' W 125°30'1212.1
2016-May-15 12:33N 46°20' W 125°30'1212.2
2016-May-15 11:33N 46°07' W 125°30'1212.4
2016-May-15 10:33N 45°55' W 125°30'1212.0
2016-May-15 09:33N 45°43' W 125°31'1211.7
2016-May-15 08:33N 45°31' W 125°31'42911.6
2016-May-13 19:33N 38°30' W 123°44'1211.8
2016-May-13 18:33N 38°21' W 123°34'1211.9
2016-May-13 17:33N 38°12' W 123°24'1212.0
2016-May-13 16:33N 38°03' W 123°14'1212.3
2016-May-13 15:33N 37°56' W 123°02'1212.3
2016-May-13 14:33N 37°49' W 122°48'1211.6
2016-May-13 13:33N 37°47' W 122°34'1211.6
2016-May-13 12:33N 37°48' W 122°19'0 0.4
2016-May-13 11:33N 37°48' W 122°19'0 0.0
2016-May-13 10:33N 37°48' W 122°19'0 0.0
2016-May-13 09:33N 37°48' W 122°19'0 0.0
2016-May-13 08:33N 37°48' W 122°19'0 0.0
2016-May-13 07:33N 37°48' W 122°19'0 0.0
2016-May-13 06:33N 37°48' W 122°19'0 0.0
2016-May-13 05:33N 37°48' W 122°19'0 0.0
2016-May-13 04:33N 37°48' W 122°19'0 0.0
2016-May-13 03:33N 37°48' W 122°19'0 0.0
2016-May-13 02:33N 37°48' W 122°19'0 0.0
2016-May-13 01:33N 37°48' W 122°19'0 0.0
2016-May-13 00:33N 37°48' W 122°19'0 0.0
2016-May-12 23:33N 37°48' W 122°19'0 0.0
2016-May-12 22:33N 37°48' W 122°19'0 0.0
2016-May-12 21:33N 37°48' W 122°19'0 0.0
2016-May-12 20:33N 37°48' W 122°19'0 0.0
2016-May-12 19:30N 37°48' W 122°19'0 0.0
2016-May-12 18:33N 37°48' W 122°19'0 0.0
2016-May-12 17:33N 37°48' W 122°19'0 0.0
2016-May-12 16:33N 37°48' W 122°19'0 0.0
2016-May-12 15:33N 37°48' W 122°19'0 0.1
2016-May-12 14:34N 37°48' W 122°19'1 1.5
2016-May-12 13:34N 37°48' W 122°17'2 1.7
2016-May-12 12:34N 37°48' W 122°19'1010.2
2016-May-12 11:33N 37°48' W 122°32'9 9.0
2016-May-12 10:34N 37°41' W 122°40'1010.1
2016-May-12 09:34N 37°31' W 122°40'1211.7
2016-May-12 08:34N 37°20' W 122°39'1211.9
2016-May-12 07:34N 37°08' W 122°35'1212.0
2016-May-12 06:32N 36°56' W 122°31'1211.9
2016-May-12 05:33N 36°45' W 122°25'1211.8
2016-May-12 04:33N 36°34' W 122°20'1211.9
2016-May-12 03:33N 36°23' W 122°15'1211.6
2016-May-12 02:33N 36°12' W 122°10'1212.3
2016-May-12 01:34N 36°02' W 122°02'1212.3
2016-May-12 00:33N 35°51' W 121°54'1212.3
2016-May-11 23:33N 35°40' W 121°48'1212.2
2016-May-11 22:33N 35°29' W 121°40'1212.3
2016-May-11 21:32N 35°19' W 121°33'17811.5
2016-May-11 06:06N 33°43' W 118°31'811.6
2016-May-11 05:25N 33°39' W 118°23'8 9.8
2016-May-11 04:33N 33°39' W 118°12'6 6.3
2016-May-11 03:33N 33°45' W 118°14'0 0.4
2016-May-11 02:32N 33°45' W 118°14'0 0.0
2016-May-11 01:32N 33°45' W 118°14'0 0.0
2016-May-11 00:32N 33°45' W 118°14'0 0.0
2016-May-10 23:32N 33°45' W 118°14'0 0.0
2016-May-10 22:32N 33°45' W 118°14'0 0.0
2016-May-10 21:32N 33°45' W 118°14'0 0.0
2016-May-10 20:32N 33°45' W 118°14'0 0.0
2016-May-10 19:32N 33°45' W 118°14'0 0.0
2016-May-10 18:32N 33°45' W 118°14'0 0.0
2016-May-10 17:32N 33°45' W 118°14'0 0.0
2016-May-10 16:32N 33°45' W 118°14'0 0.0
2016-May-10 15:32N 33°45' W 118°14'0 0.0
2016-May-10 14:32N 33°45' W 118°14'0 0.0
2016-May-10 13:32N 33°45' W 118°14'0 0.0
2016-May-10 12:32N 33°45' W 118°14'0 0.0
2016-May-10 11:32N 33°45' W 118°14'0 0.0
2016-May-10 10:32N 33°45' W 118°14'0 0.0
2016-May-10 09:32N 33°45' W 118°14'0 0.0
2016-May-10 08:32N 33°45' W 118°14'0 0.0
2016-May-10 07:32N 33°45' W 118°14'0 0.0
2016-May-10 06:32N 33°45' W 118°14'0 0.0
2016-May-10 05:32N 33°45' W 118°14'0 0.0
2016-May-10 04:32N 33°45' W 118°14'0 0.0
2016-May-10 03:32N 33°45' W 118°14'0 0.0
2016-May-10 02:32N 33°45' W 118°14'0 0.0
2016-May-10 01:32N 33°45' W 118°14'0 0.0
2016-May-10 00:32N 33°45' W 118°14'0 0.0
2016-May-09 23:29N 33°45' W 118°14'0 0.0
2016-May-09 22:32N 33°45' W 118°14'0 0.0
2016-May-09 21:32N 33°45' W 118°14'0 0.0
2016-May-09 20:32N 33°45' W 118°14'0 0.0
2016-May-09 19:32N 33°45' W 118°14'0 0.0
2016-May-09 18:32N 33°45' W 118°14'0 0.0
2016-May-09 17:32N 33°45' W 118°14'0 0.0
2016-May-09 16:32N 33°45' W 118°14'0 0.0
2016-May-09 15:32N 33°45' W 118°14'0 0.0
2016-May-09 14:32N 33°45' W 118°14'0 0.0
2016-May-09 13:32N 33°45' W 118°14'0 0.0
2016-May-09 12:32N 33°45' W 118°14'0 0.0
2016-May-09 11:32N 33°45' W 118°14'0 0.0
2016-May-09 10:29N 33°45' W 118°14'0 0.0
2016-May-09 09:26N 33°45' W 118°14'0 0.0
2016-May-09 08:32N 33°45' W 118°14'0 0.0
2016-May-09 07:29N 33°45' W 118°14'0 0.0
2016-May-09 06:32N 33°45' W 118°14'0 0.0
2016-May-09 05:32N 33°45' W 118°14'0 0.0
2016-May-09 04:32N 33°45' W 118°14'0 0.0
2016-May-09 03:32N 33°45' W 118°14'0 0.0
2016-May-09 02:32N 33°45' W 118°14'0 0.0
2016-May-09 01:29N 33°45' W 118°14'0 0.0
2016-May-09 00:32N 33°45' W 118°14'0 0.0
2016-May-08 23:29N 33°45' W 118°14'0 0.0
2016-May-08 22:32N 33°45' W 118°14'0 0.0
2016-May-08 21:32N 33°45' W 118°14'0 0.0
2016-May-08 20:32N 33°45' W 118°14'0 0.0
2016-May-08 19:26N 33°45' W 118°14'0 0.0
2016-May-08 18:32N 33°45' W 118°14'0 0.0
2016-May-08 17:32N 33°45' W 118°14'0 0.0
2016-May-08 15:32N 33°45' W 118°14'0 0.0
2016-May-08 14:14N 33°45' W 118°14'0 0.0
2016-May-08 13:32N 33°45' W 118°14'0 0.0
2016-May-08 12:32N 33°45' W 118°14'0 0.0
2016-May-08 11:32N 33°45' W 118°14'0 0.0
2016-May-08 10:29N 33°45' W 118°14'0 0.0
2016-May-08 09:29N 33°45' W 118°14'0 0.0
2016-May-08 08:32N 33°45' W 118°14'0 0.0
2016-May-08 07:32N 33°45' W 118°14'0 0.0
2016-May-08 06:32N 33°45' W 118°14'0 0.0
2016-May-08 05:32N 33°45' W 118°14'0 0.0
2016-May-08 04:29N 33°45' W 118°14'  
Track history (hours):
 
Tides and Currents Weather Stations Pressure Air Temp Water Temp Dewpoint Dewpoint Depression Visibility Wind Speed Wind Dir Waves Ship Positions

Marchen Maersk

Last reported at 2016-May-18 03:32 UTC. Time now 2016-May-25 16:54 UTC.
Position N 48°30' W 126°38'.

Length 367 m; draft 12.5 m.

Type: Ship (hazmat cat A). MMSI: 220594000.

Date/timePositionNaut miles runAvg speedWind from/ knotsBaromVisibWave heightAir tempDewpointWater temp
2016-May-18 03:32N 48°30' W 126°38'1212.1
2016-May-18 02:33N 48°30' W 126°20'1211.9
2016-May-18 01:33N 48°31' W 126°02'1212.2
2016-May-18 00:33N 48°30' W 125°44'1212.0
2016-May-17 23:33N 48°30' W 125°26'1212.0
2016-May-17 22:33N 48°30' W 125°07'1212.2
2016-May-17 21:33N 48°30' W 124°49'4811.9
2016-May-17 17:33N 48°16' W 123°40'1211.7
2016-May-17 16:33N 48°11' W 123°25'1110.8
2016-May-17 15:33N 48°12' W 123°08'1918.1
2016-May-17 14:32N 48°08' W 122°41'1818.5
2016-May-17 13:34N 47°52' W 122°28'1616.0
2016-May-17 12:33N 47°37' W 122°23'2 1.9
2016-May-17 11:31N 47°36' W 122°21'0 0.0
2016-May-17 10:33N 47°36' W 122°21'0 0.0
2016-May-17 09:31N 47°36' W 122°21'0 0.0
2016-May-17 08:31N 47°36' W 122°21'0 0.0
2016-May-17 07:34N 47°36' W 122°21'0 0.0
2016-May-17 06:33N 47°36' W 122°21'0 0.0
2016-May-17 05:28N 47°36' W 122°21'0 0.0
2016-May-17 04:31N 47°36' W 122°21'0 0.0
2016-May-17 03:31N 47°36' W 122°21'0 0.0
2016-May-17 02:30N 47°36' W 122°21'0 0.0
2016-May-17 01:33N 47°36' W 122°21'0 0.0
2016-May-17 00:30N 47°36' W 122°21'0 0.0
2016-May-16 23:33N 47°36' W 122°21'0 0.0
2016-May-16 22:31N 47°36' W 122°21'0 0.0
2016-May-16 21:25N 47°36' W 122°21'0 0.0
2016-May-16 20:27N 47°36' W 122°21'0 0.0
2016-May-16 19:33N 47°36' W 122°21'0 0.0
2016-May-16 18:30N 47°36' W 122°21'0 0.0
2016-May-16 17:31N 47°36' W 122°21'0 0.0
2016-May-16 16:33N 47°36' W 122°21'0 0.0
2016-May-16 15:30N 47°36' W 122°21'0 0.0
2016-May-16 14:31N 47°36' W 122°21'0 0.0
2016-May-16 13:33N 47°36' W 122°21'0 0.0
2016-May-16 12:33N 47°36' W 122°21'7 7.1
2016-May-16 11:34N 47°40' W 122°28'1615.8
2016-May-16 10:33N 47°56' W 122°32'1615.9
2016-May-16 09:31N 48°10' W 122°46'1817.5
2016-May-16 08:30N 48°11' W 123°12'1111.4
2016-May-16 07:33N 48°12' W 123°28'8 7.6
2016-May-16 06:33N 48°13' W 123°40'8 7.7
2016-May-16 05:31N 48°13' W 123°52'44 8.6
2016-May-16 00:24N 48°29' W 124°53'7810.7
2016-May-15 17:05N 47°14' W 125°30'811.7
2016-May-15 16:24N 47°07' W 125°30'1112.0
2016-May-15 15:30N 46°56' W 125°31'1212.3
2016-May-15 14:33N 46°44' W 125°31'1212.4
2016-May-15 13:33N 46°32' W 125°30'1212.1
2016-May-15 12:33N 46°20' W 125°30'1212.2
2016-May-15 11:33N 46°07' W 125°30'1212.4
2016-May-15 10:33N 45°55' W 125°30'1212.0
2016-May-15 09:33N 45°43' W 125°31'1211.7
2016-May-15 08:33N 45°31' W 125°31'42911.6
2016-May-13 19:33N 38°30' W 123°44'1211.8
2016-May-13 18:33N 38°21' W 123°34'1211.9
2016-May-13 17:33N 38°12' W 123°24'1212.0
2016-May-13 16:33N 38°03' W 123°14'1212.3
2016-May-13 15:33N 37°56' W 123°02'1212.3
2016-May-13 14:33N 37°49' W 122°48'1211.6
2016-May-13 13:33N 37°47' W 122°34'1211.6
2016-May-13 12:33N 37°48' W 122°19'0 0.4
2016-May-13 11:33N 37°48' W 122°19'0 0.0
2016-May-13 10:33N 37°48' W 122°19'0 0.0
2016-May-13 09:33N 37°48' W 122°19'0 0.0
2016-May-13 08:33N 37°48' W 122°19'0 0.0
2016-May-13 07:33N 37°48' W 122°19'0 0.0
2016-May-13 06:33N 37°48' W 122°19'0 0.0
2016-May-13 05:33N 37°48' W 122°19'0 0.0
2016-May-13 04:33N 37°48' W 122°19'0 0.0
2016-May-13 03:33N 37°48' W 122°19'0 0.0
2016-May-13 02:33N 37°48' W 122°19'0 0.0
2016-May-13 01:33N 37°48' W 122°19'0 0.0
2016-May-13 00:33N 37°48' W 122°19'0 0.0
2016-May-12 23:33N 37°48' W 122°19'0 0.0
2016-May-12 22:33N 37°48' W 122°19'0 0.0
2016-May-12 21:33N 37°48' W 122°19'0 0.0
2016-May-12 20:33N 37°48' W 122°19'0 0.0
2016-May-12 19:30N 37°48' W 122°19'0 0.0
2016-May-12 18:33N 37°48' W 122°19'0 0.0
2016-May-12 17:33N 37°48' W 122°19'0 0.0
2016-May-12 16:33N 37°48' W 122°19'0 0.0
2016-May-12 15:33N 37°48' W 122°19'0 0.1
2016-May-12 14:34N 37°48' W 122°19'1 1.5
2016-May-12 13:34N 37°48' W 122°17'2 1.7
2016-May-12 12:34N 37°48' W 122°19'1010.2
2016-May-12 11:33N 37°48' W 122°32'9 9.0
2016-May-12 10:34N 37°41' W 122°40'1010.1
2016-May-12 09:34N 37°31' W 122°40'1211.7
2016-May-12 08:34N 37°20' W 122°39'1211.9
2016-May-12 07:34N 37°08' W 122°35'1212.0
2016-May-12 06:32N 36°56' W 122°31'1211.9
2016-May-12 05:33N 36°45' W 122°25'1211.8
2016-May-12 04:33N 36°34' W 122°20'1211.9
2016-May-12 03:33N 36°23' W 122°15'1211.6
2016-May-12 02:33N 36°12' W 122°10'1212.3
2016-May-12 01:34N 36°02' W 122°02'1212.3
2016-May-12 00:33N 35°51' W 121°54'1212.3
2016-May-11 23:33N 35°40' W 121°48'1212.2
2016-May-11 22:33N 35°29' W 121°40'1212.3
2016-May-11 21:32N 35°19' W 121°33'17811.5
2016-May-11 06:06N 33°43' W 118°31'811.6
2016-May-11 05:25N 33°39' W 118°23'8 9.8
2016-May-11 04:33N 33°39' W 118°12'6 6.3
2016-May-11 03:33N 33°45' W 118°14'0 0.4
2016-May-11 02:32N 33°45' W 118°14'0 0.0
2016-May-11 01:32N 33°45' W 118°14'0 0.0
2016-May-11 00:32N 33°45' W 118°14'0 0.0
2016-May-10 23:32N 33°45' W 118°14'0 0.0
2016-May-10 22:32N 33°45' W 118°14'0 0.0
2016-May-10 21:32N 33°45' W 118°14'0 0.0
2016-May-10 20:32N 33°45' W 118°14'0 0.0
2016-May-10 19:32N 33°45' W 118°14'0 0.0
2016-May-10 18:32N 33°45' W 118°14'0 0.0
2016-May-10 17:32N 33°45' W 118°14'0 0.0
2016-May-10 16:32N 33°45' W 118°14'0 0.0
2016-May-10 15:32N 33°45' W 118°14'0 0.0
2016-May-10 14:32N 33°45' W 118°14'0 0.0
2016-May-10 13:32N 33°45' W 118°14'0 0.0
2016-May-10 12:32N 33°45' W 118°14'0 0.0
2016-May-10 11:32N 33°45' W 118°14'0 0.0
2016-May-10 10:32N 33°45' W 118°14'0 0.0
2016-May-10 09:32N 33°45' W 118°14'0 0.0
2016-May-10 08:32N 33°45' W 118°14'0 0.0
2016-May-10 07:32N 33°45' W 118°14'0 0.0
2016-May-10 06:32N 33°45' W 118°14'0 0.0
2016-May-10 05:32N 33°45' W 118°14'0 0.0
2016-May-10 04:32N 33°45' W 118°14'0 0.0
2016-May-10 03:32N 33°45' W 118°14'0 0.0
2016-May-10 02:32N 33°45' W 118°14'0 0.0
2016-May-10 01:32N 33°45' W 118°14'0 0.0
2016-May-10 00:32N 33°45' W 118°14'0 0.0
2016-May-09 23:29N 33°45' W 118°14'0 0.0
2016-May-09 22:32N 33°45' W 118°14'0 0.0
2016-May-09 21:32N 33°45' W 118°14'0 0.0
2016-May-09 20:32N 33°45' W 118°14'0 0.0
2016-May-09 19:32N 33°45' W 118°14'0 0.0
2016-May-09 18:32N 33°45' W 118°14'0 0.0
2016-May-09 17:32N 33°45' W 118°14'0 0.0
2016-May-09 16:32N 33°45' W 118°14'0 0.0
2016-May-09 15:32N 33°45' W 118°14'0 0.0
2016-May-09 14:32N 33°45' W 118°14'0 0.0
2016-May-09 13:32N 33°45' W 118°14'0 0.0
2016-May-09 12:32N 33°45' W 118°14'0 0.0
2016-May-09 11:32N 33°45' W 118°14'0 0.0
2016-May-09 10:29N 33°45' W 118°14'0 0.0
2016-May-09 09:26N 33°45' W 118°14'0 0.0
2016-May-09 08:32N 33°45' W 118°14'0 0.0
2016-May-09 07:29N 33°45' W 118°14'0 0.0
2016-May-09 06:32N 33°45' W 118°14'0 0.0
2016-May-09 05:32N 33°45' W 118°14'0 0.0
2016-May-09 04:32N 33°45' W 118°14'0 0.0
2016-May-09 03:32N 33°45' W 118°14'0 0.0
2016-May-09 02:32N 33°45' W 118°14'0 0.0
2016-May-09 01:29N 33°45' W 118°14'0 0.0
2016-May-09 00:32N 33°45' W 118°14'0 0.0
2016-May-08 23:29N 33°45' W 118°14'0 0.0
2016-May-08 22:32N 33°45' W 118°14'0 0.0
2016-May-08 21:32N 33°45' W 118°14'0 0.0
2016-May-08 20:32N 33°45' W 118°14'0 0.0
2016-May-08 19:26N 33°45' W 118°14'0 0.0
2016-May-08 18:32N 33°45' W 118°14'0 0.0
2016-May-08 17:32N 33°45' W 118°14'0 0.0
2016-May-08 15:32N 33°45' W 118°14'0 0.0
2016-May-08 14:14N 33°45' W 118°14'0 0.0
2016-May-08 13:32N 33°45' W 118°14'0 0.0
2016-May-08 12:32N 33°45' W 118°14'0 0.0
2016-May-08 11:32N 33°45' W 118°14'0 0.0
2016-May-08 10:29N 33°45' W 118°14'0 0.0
2016-May-08 09:29N 33°45' W 118°14'0 0.0
2016-May-08 08:32N 33°45' W 118°14'0 0.0
2016-May-08 07:32N 33°45' W 118°14'0 0.0
2016-May-08 06:32N 33°45' W 118°14'0 0.0
2016-May-08 05:32N 33°45' W 118°14'0 0.0
2016-May-08 04:29N 33°45' W 118°14'  

Dump ship's entire track history